Escribe el Código OACI del Aeropuerto

Buscar por Aeropuerto o Ciudad

Información Meteorológica Actual

KBRO | Brownsville/South Padre Island International Airport

Brownsville, Texas, United States

Última Actualización Hace 19 Minutos

Cielo Completamente Nublado

17 ºC de Temperatura

Vientos Leves a Moderados del NorOeste

Temperatura

17 ºC

Temperatura del Punto de Rocío

05 ºC

Humedad Relativa

45.2 %

Dirección del Viento

NorOeste (320º, Sin Variaciones de Consideración)

Velocidad del Viento

13 km/h (07 kt)

Ráfagas

No Hay

Visibilidad

Mayor a 10 Millas

Presión Reducida a Nivel del Mar

30.09 inHg (Pulgadas de Mercurio)

Capas de Nubes

90% a 100% de Cielo Cubierto con Base a 579 mts (1900 ft) de Altura.

METAR KBRO 071453Z 32007KT 10SM OVC019 17/05 A3009 RMK AO2 SLP187 T01670050 51014

Pronóstico Meteorológico

KBRO | Brownsville/South Padre Island International Airport

Brownsville, Texas, United States

Pronóstico válido para las próximas 21 Horas

A partir de este momento se espera:

Cielo Completamente Nublado

Vientos Leves a Moderados del Norte

En 6 horas se espera el comienzo de:

Vientos Leves a Moderados del NorEste

En 13 horas se espera el comienzo de:

Viento Calmo

Temperatura Máxima

Sin Datos

Temperatura Mínima

Sin Datos

TAF KBRO 071127Z 0712/0812 32008KT P6SM OVC020 FM071400 36007KT P6SM OVC030 FM072100 04005KT P6SM OVC040 FM080400 00000KT P6SM OVC025